createdAt,value
2024-03-08T00:00:03.476Z,86.13
2024-03-08T00:01:03.384Z,86.23
2024-03-08T00:02:03.423Z,86.54
2024-03-08T00:03:04.012Z,86.65
2024-03-08T00:04:03.332Z,86.44
2024-03-08T00:05:03.307Z,86.44
2024-03-08T00:06:03.409Z,86.44
2024-03-08T00:07:03.276Z,86.33
2024-03-08T00:08:03.293Z,86.33
2024-03-08T00:09:03.269Z,86.33
2024-03-08T00:10:03.253Z,86.44
2024-03-08T00:11:03.297Z,86.65
2024-03-08T00:12:03.255Z,86.65
2024-03-08T00:13:03.210Z,86.65
2024-03-08T00:14:03.260Z,86.75
2024-03-08T00:15:03.284Z,86.44
2024-03-08T00:16:03.194Z,86.44
2024-03-08T00:17:03.166Z,86.65
2024-03-08T00:18:03.250Z,87.00
2024-03-08T00:19:03.223Z,87.31
2024-03-08T00:20:03.124Z,87.31
2024-03-08T00:21:03.241Z,87.52
2024-03-08T00:22:03.103Z,87.52
2024-03-08T00:23:03.097Z,87.66
2024-03-08T00:24:03.172Z,87.88
2024-03-08T00:25:03.070Z,88.09
2024-03-08T00:26:03.072Z,88.19
2024-03-08T00:27:03.109Z,88.40
2024-03-08T00:28:03.065Z,88.50
2024-03-08T00:29:03.026Z,88.50
2024-03-08T00:30:03.147Z,88.71
2024-03-08T00:31:03.010Z,88.92
2024-03-08T00:32:03.000Z,88.92
2024-03-08T00:33:03.098Z,88.71
2024-03-08T00:34:03.071Z,88.61
2024-03-08T00:35:02.960Z,88.57
2024-03-08T00:36:03.018Z,88.61
2024-03-08T00:37:02.938Z,88.71
2024-03-08T00:38:02.924Z,89.03
2024-03-08T00:39:03.126Z,89.23
2024-03-08T00:40:02.961Z,89.45
2024-03-08T00:41:02.888Z,89.55
2024-03-08T00:42:02.976Z,89.86
2024-03-08T00:43:02.919Z,89.86
2024-03-08T00:44:02.846Z,90.01
2024-03-08T00:45:02.988Z,90.11
2024-03-08T00:46:02.835Z,90.11
2024-03-08T00:47:02.826Z,90.22
2024-03-08T00:48:02.921Z,90.43
2024-03-08T00:49:02.865Z,90.53
2024-03-08T00:50:02.762Z,90.68
2024-03-08T00:51:02.831Z,90.89
2024-03-08T00:52:02.772Z,90.89
2024-03-08T00:53:02.754Z,90.99
2024-03-08T00:54:02.751Z,91.09
2024-03-08T00:55:02.754Z,91.31
2024-03-08T00:56:02.727Z,91.31
2024-03-08T00:57:02.755Z,91.41
2024-03-08T00:58:02.727Z,91.41
2024-03-08T00:59:02.687Z,91.31
2024-03-08T01:00:02.750Z,91.31
2024-03-08T01:01:02.693Z,91.41
2024-03-08T01:02:02.739Z,91.46
2024-03-08T01:03:02.680Z,91.66
2024-03-08T01:04:02.607Z,91.87
2024-03-08T01:05:02.647Z,92.08
2024-03-08T01:06:02.777Z,92.29
2024-03-08T01:07:02.599Z,92.40
2024-03-08T01:08:02.614Z,92.40
2024-03-08T01:09:02.683Z,92.29
2024-03-08T01:10:02.579Z,92.14
2024-03-08T01:11:02.595Z,92.08
2024-03-08T01:12:02.695Z,92.04
2024-03-08T01:13:02.622Z,92.14
2024-03-08T01:14:02.542Z,92.04
2024-03-08T01:15:02.579Z,91.94
2024-03-08T01:16:02.498Z,91.94
2024-03-08T01:17:02.527Z,91.83
2024-03-08T01:18:02.603Z,91.62
2024-03-08T01:19:02.555Z,91.62
2024-03-08T01:20:02.455Z,91.52
2024-03-08T01:21:02.491Z,91.52
2024-03-08T01:22:02.415Z,91.41
2024-03-08T01:23:02.444Z,91.52
2024-03-08T01:24:02.499Z,91.62
2024-03-08T01:25:02.426Z,91.77
2024-03-08T01:26:02.390Z,91.87
2024-03-08T01:27:02.404Z,91.98
2024-03-08T01:28:02.356Z,92.19
2024-03-08T01:29:02.407Z,92.40
2024-03-08T01:30:02.401Z,92.40
2024-03-08T01:31:02.340Z,92.40
2024-03-08T01:32:02.310Z,92.50
2024-03-08T01:33:02.378Z,92.50
2024-03-08T01:34:02.344Z,92.71
2024-03-08T01:35:02.326Z,92.71
2024-03-08T01:36:02.312Z,92.82
2024-03-08T01:37:02.266Z,92.82
2024-03-08T01:38:02.257Z,92.71
2024-03-08T01:39:02.317Z,92.61
2024-03-08T01:40:02.277Z,92.50
2024-03-08T01:41:02.224Z,92.50
2024-03-08T01:42:02.239Z,92.50
2024-03-08T01:43:02.254Z,92.50
2024-03-08T01:44:02.185Z,92.61
2024-03-08T01:45:02.360Z,92.71
2024-03-08T01:46:02.166Z,92.82
2024-03-08T01:47:02.168Z,92.86
2024-03-08T01:48:02.253Z,92.86
2024-03-08T01:49:02.491Z,92.86
2024-03-08T01:50:02.195Z,92.76
2024-03-08T01:51:02.174Z,92.76
2024-03-08T01:52:02.142Z,93.07
2024-03-08T01:53:02.109Z,93.38
2024-03-08T01:54:02.175Z,93.70
2024-03-08T01:55:02.127Z,93.80
2024-03-08T01:56:02.056Z,93.70
2024-03-08T01:57:02.173Z,93.59
2024-03-08T01:58:02.077Z,93.59
2024-03-08T01:59:02.180Z,93.59
2024-03-08T02:00:02.112Z,93.74
2024-03-08T02:01:02.072Z,93.95
2024-03-08T02:02:01.996Z,94.06
2024-03-08T02:03:02.077Z,94.26
2024-03-08T02:04:01.974Z,94.37
2024-03-08T02:05:01.969Z,94.26
2024-03-08T02:06:02.054Z,94.26
2024-03-08T02:07:01.951Z,94.16
2024-03-08T02:08:01.940Z,94.16
2024-03-08T02:09:02.022Z,94.06
2024-03-08T02:10:01.965Z,94.16
2024-03-08T02:11:01.957Z,94.26
2024-03-08T02:12:01.923Z,94.47
2024-03-08T02:13:01.905Z,94.47
2024-03-08T02:14:01.869Z,94.58
2024-03-08T02:15:01.915Z,94.68
2024-03-08T02:16:01.914Z,94.89
2024-03-08T02:17:01.841Z,95.00
2024-03-08T02:18:01.890Z,95.10
2024-03-08T02:19:01.857Z,95.04
2024-03-08T02:20:01.818Z,95.15
2024-03-08T02:21:01.881Z,95.25
2024-03-08T02:22:01.799Z,95.56
2024-03-08T02:23:01.763Z,95.98
2024-03-08T02:24:01.837Z,96.09
2024-03-08T02:25:01.760Z,96.09
2024-03-08T02:26:01.771Z,96.15
2024-03-08T02:27:01.789Z,96.15
2024-03-08T02:28:01.701Z,96.15
2024-03-08T02:29:01.735Z,96.19
2024-03-08T02:30:01.768Z,96.25
2024-03-08T02:31:01.686Z,96.15
2024-03-08T02:32:01.707Z,96.15
2024-03-08T02:33:01.814Z,96.15
2024-03-08T02:34:01.649Z,96.04
2024-03-08T02:35:01.688Z,96.04
2024-03-08T02:36:01.650Z,95.88
2024-03-08T02:37:01.617Z,95.84
2024-03-08T02:38:01.599Z,95.88
2024-03-08T02:39:01.606Z,95.98
2024-03-08T02:40:01.580Z,96.19
2024-03-08T02:41:01.610Z,96.19
2024-03-08T02:42:01.619Z,96.30
2024-03-08T02:43:01.560Z,96.30
2024-03-08T02:44:01.529Z,96.25
2024-03-08T02:45:01.583Z,96.25
2024-03-08T02:46:01.525Z,96.36
2024-03-08T02:47:01.544Z,96.47
2024-03-08T02:48:01.622Z,96.47
2024-03-08T02:49:01.569Z,96.36
2024-03-08T02:50:01.456Z,96.25
2024-03-08T02:51:01.524Z,95.94
2024-03-08T02:52:01.473Z,95.73
2024-03-08T02:53:01.434Z,95.62
2024-03-08T02:54:01.440Z,95.62
2024-03-08T02:55:01.427Z,95.52
2024-03-08T02:56:01.392Z,95.42
2024-03-08T02:57:01.526Z,95.52
2024-03-08T02:58:01.373Z,95.52
2024-03-08T02:59:01.370Z,95.52
2024-03-08T03:00:01.474Z,95.62
2024-03-08T03:01:01.429Z,95.84
2024-03-08T03:02:01.354Z,95.94
2024-03-08T03:03:01.396Z,96.15
2024-03-08T03:04:01.465Z,96.25
2024-03-08T03:05:01.323Z,96.15
2024-03-08T03:06:01.328Z,96.25
2024-03-08T03:07:01.310Z,96.25
2024-03-08T03:08:01.291Z,96.15
2024-03-08T03:09:01.324Z,96.04
2024-03-08T03:10:01.301Z,96.04
2024-03-08T03:11:01.323Z,96.15
2024-03-08T03:12:01.316Z,96.25
2024-03-08T03:13:01.283Z,96.15
2024-03-08T03:14:01.238Z,96.04
2024-03-08T03:15:01.416Z,95.94
2024-03-08T03:16:01.290Z,95.84
2024-03-08T03:17:01.260Z,95.84
2024-03-08T03:18:01.258Z,95.94
2024-03-08T03:19:01.306Z,95.94
2024-03-08T03:20:01.129Z,95.94
2024-03-08T03:21:01.235Z,95.94
2024-03-08T03:22:01.124Z,95.94
2024-03-08T03:23:01.129Z,95.98
2024-03-08T03:24:01.132Z,95.98
2024-03-08T03:25:01.076Z,95.98
2024-03-08T03:26:01.075Z,95.98
2024-03-08T03:27:01.085Z,96.09
2024-03-08T03:28:01.061Z,96.41
2024-03-08T03:29:01.035Z,96.72
2024-03-08T03:30:01.130Z,96.87
2024-03-08T03:31:01.013Z,97.08
2024-03-08T03:32:01.018Z,97.29
2024-03-08T03:33:01.084Z,97.45
2024-03-08T03:34:00.965Z,97.56
2024-03-08T03:35:00.968Z,97.45
2024-03-08T03:36:01.003Z,97.45
2024-03-08T03:37:00.945Z,97.45
2024-03-08T03:38:00.951Z,97.45
2024-03-08T03:39:00.970Z,97.45
2024-03-08T03:40:00.911Z,97.45
2024-03-08T03:41:00.906Z,97.45
2024-03-08T03:42:00.912Z,97.35
2024-03-08T03:43:00.881Z,97.35
2024-03-08T03:44:00.913Z,97.35
2024-03-08T03:45:00.944Z,97.24
2024-03-08T03:46:00.860Z,97.29
2024-03-08T03:47:00.848Z,97.18
2024-03-08T03:48:00.879Z,97.08
2024-03-08T03:49:00.815Z,97.08
2024-03-08T03:50:00.814Z,97.08
2024-03-08T03:51:00.871Z,97.18
2024-03-08T03:52:00.786Z,97.18
2024-03-08T03:53:00.768Z,97.18
2024-03-08T03:54:00.846Z,97.18
2024-03-08T03:55:00.743Z,97.33
2024-03-08T03:56:00.757Z,97.33
2024-03-08T03:57:00.805Z,97.33
2024-03-08T03:58:00.856Z,97.54
2024-03-08T03:59:00.734Z,97.64
2024-03-08T04:00:00.851Z,97.75
2024-03-08T04:01:00.723Z,98.07
2024-03-08T04:02:00.672Z,98.59
2024-03-08T04:03:00.782Z,98.97
2024-03-08T04:04:00.646Z,99.07
2024-03-08T04:05:00.632Z,98.75
2024-03-08T04:06:00.683Z,98.65
2024-03-08T04:07:00.600Z,98.44
2024-03-08T04:08:00.637Z,98.34
2024-03-08T04:09:00.652Z,98.34
2024-03-08T04:10:00.575Z,98.13
2024-03-08T04:11:00.729Z,98.02
2024-03-08T04:12:00.632Z,98.02
2024-03-08T04:13:00.545Z,98.07
2024-03-08T04:14:00.523Z,98.07
2024-03-08T04:15:00.605Z,98.17
2024-03-08T04:16:00.518Z,98.38
2024-03-08T04:17:00.494Z,98.49
2024-03-08T04:18:00.571Z,98.59
2024-03-08T04:19:00.643Z,98.69
2024-03-08T04:20:00.491Z,98.80
2024-03-08T04:21:00.516Z,98.95
2024-03-08T04:22:00.475Z,99.05
2024-03-08T04:23:00.437Z,99.27
2024-03-08T04:24:00.484Z,99.37
2024-03-08T04:25:00.418Z,99.48
2024-03-08T04:26:00.395Z,99.48
2024-03-08T04:27:00.597Z,99.48
2024-03-08T04:28:00.374Z,99.58
2024-03-08T04:29:00.375Z,99.69
2024-03-08T04:30:00.437Z,99.79
2024-03-08T04:31:00.342Z,99.90
2024-03-08T04:32:00.316Z,99.90
2024-03-08T04:33:00.451Z,99.90
2024-03-08T04:34:00.421Z,99.99
2024-03-08T04:35:00.310Z,99.99
2024-03-08T04:36:00.320Z,99.99
2024-03-08T04:37:00.268Z,99.99
2024-03-08T04:38:00.296Z,99.99
2024-03-08T04:39:00.302Z,99.99
2024-03-08T04:40:00.744Z,99.99
2024-03-08T04:41:00.229Z,99.99
2024-03-08T04:42:01.903Z,99.99
2024-03-08T04:43:00.226Z,99.99
2024-03-08T04:44:00.231Z,99.99
2024-03-08T04:45:00.276Z,99.99
2024-03-08T04:46:00.172Z,99.99
2024-03-08T04:47:00.167Z,99.99
2024-03-08T04:48:00.289Z,99.99
2024-03-08T04:49:00.258Z,99.99
2024-03-08T04:50:00.167Z,99.99
2024-03-08T04:51:00.171Z,99.99
2024-03-08T04:52:00.123Z,99.99
2024-03-08T04:53:00.214Z,99.99
2024-03-08T04:54:00.186Z,99.99
2024-03-08T04:55:00.061Z,99.99
2024-03-08T04:56:00.045Z,99.99
2024-03-08T04:57:00.094Z,99.99
2024-03-08T04:58:00.101Z,99.99
2024-03-08T04:59:00.026Z,99.90
2024-03-08T05:00:00.047Z,99.79
2024-03-08T05:01:00.021Z,99.69
2024-03-08T05:02:00.002Z,99.58
2024-03-08T05:03:00.044Z,99.84
2024-03-08T05:04:04.221Z,99.99
2024-03-08T05:04:59.955Z,99.99
2024-03-08T05:05:59.995Z,99.99
2024-03-08T05:07:00.034Z,99.99
2024-03-08T05:07:59.942Z,99.99
2024-03-08T05:08:59.959Z,99.99
2024-03-08T05:09:59.906Z,99.99
2024-03-08T05:10:59.935Z,99.99
2024-03-08T05:11:59.946Z,99.99
2024-03-08T05:12:59.872Z,99.99
2024-03-08T05:13:59.895Z,99.99
2024-03-08T05:14:59.859Z,99.99
2024-03-08T05:15:59.864Z,99.99
2024-03-08T05:16:59.911Z,99.99
2024-03-08T05:17:59.965Z,99.99
2024-03-08T05:18:59.937Z,99.99
2024-03-08T05:19:59.802Z,99.99
2024-03-08T05:20:59.795Z,99.99
2024-03-08T05:21:59.794Z,99.99
2024-03-08T05:22:59.773Z,99.99
2024-03-08T05:23:59.772Z,99.99
2024-03-08T05:24:59.787Z,99.99
2024-03-08T05:25:59.753Z,99.99
2024-03-08T05:26:59.800Z,99.99
2024-03-08T05:27:59.733Z,99.99
2024-03-08T05:28:59.768Z,99.99
2024-03-08T05:29:59.709Z,99.99
2024-03-08T05:30:59.695Z,99.99
2024-03-08T05:31:59.773Z,99.99
2024-03-08T05:32:59.701Z,99.99
2024-03-08T05:33:59.683Z,99.99
2024-03-08T05:34:59.626Z,99.99
2024-03-08T05:35:59.661Z,99.99
2024-03-08T05:36:59.938Z,99.99
2024-03-08T05:37:59.628Z,99.99
2024-03-08T05:38:59.621Z,99.99
2024-03-08T05:39:59.619Z,99.99
2024-03-08T05:40:59.556Z,99.99
2024-03-08T05:41:59.677Z,99.99
2024-03-08T05:42:59.578Z,99.99
2024-03-08T05:43:59.553Z,99.99
2024-03-08T05:44:59.552Z,99.99
2024-03-08T05:45:59.523Z,99.99
2024-03-08T05:46:59.583Z,99.99
2024-03-08T05:47:59.664Z,99.99
2024-03-08T05:48:59.601Z,99.99
2024-03-08T05:49:59.493Z,99.99
2024-03-08T05:50:59.492Z,99.99
2024-03-08T05:51:59.521Z,99.99
2024-03-08T05:52:59.411Z,99.99
2024-03-08T05:53:59.487Z,99.99
2024-03-08T05:54:59.423Z,99.99
2024-03-08T05:55:59.406Z,99.99
2024-03-08T05:56:59.453Z,99.99
2024-03-08T05:58:00.146Z,99.99
2024-03-08T05:58:59.391Z,99.99
2024-03-08T05:59:59.393Z,99.99
2024-03-08T06:00:59.359Z,99.99
2024-03-08T06:01:59.346Z,99.99
2024-03-08T06:02:59.356Z,99.99
2024-03-08T06:03:59.369Z,99.99
2024-03-08T06:04:59.300Z,99.99
2024-03-08T06:05:59.409Z,99.99
2024-03-08T06:06:59.291Z,99.99
2024-03-08T06:07:59.267Z,99.99
2024-03-08T06:08:59.292Z,99.99
2024-03-08T06:09:59.263Z,99.99
2024-03-08T06:10:59.239Z,99.99
2024-03-08T06:11:59.259Z,99.99
2024-03-08T06:12:59.190Z,99.99
2024-03-08T06:13:59.208Z,99.99
2024-03-08T06:14:59.320Z,99.99
2024-03-08T06:15:59.236Z,99.99
2024-03-08T06:16:59.189Z,99.99
2024-03-08T06:17:59.189Z,99.99
2024-03-08T06:18:59.208Z,99.97
2024-03-08T06:19:59.194Z,99.87
2024-03-08T06:20:59.141Z,99.66
2024-03-08T06:21:59.126Z,99.71
2024-03-08T06:22:59.111Z,99.61
2024-03-08T06:23:59.428Z,99.51
2024-03-08T06:24:59.105Z,99.19
2024-03-08T06:25:59.102Z,98.88
2024-03-08T06:26:59.183Z,98.52
2024-03-08T06:27:59.045Z,98.31
2024-03-08T06:28:59.426Z,98.10
2024-03-08T06:29:59.100Z,97.99
2024-03-08T06:30:58.989Z,97.89
2024-03-08T06:31:59.014Z,97.78
2024-03-08T06:32:59.054Z,97.78
2024-03-08T06:33:59.441Z,97.89
2024-03-08T06:34:58.983Z,97.89
2024-03-08T06:35:59.171Z,97.78
2024-03-08T06:36:59.003Z,97.78
2024-03-08T06:37:58.937Z,97.78
2024-03-08T06:38:58.944Z,97.85
2024-03-08T06:39:59.028Z,97.85
2024-03-08T06:40:58.910Z,97.69
2024-03-08T06:41:58.947Z,97.28
2024-03-08T06:42:58.876Z,96.96
2024-03-08T06:43:58.858Z,96.75
2024-03-08T06:44:58.857Z,96.19
2024-03-08T06:45:58.889Z,95.87
2024-03-08T06:47:00.751Z,95.56
2024-03-08T06:47:58.961Z,95.45
2024-03-08T06:48:58.830Z,95.57
2024-03-08T06:49:58.835Z,94.84
2024-03-08T06:50:58.851Z,91.18
2024-03-08T06:51:58.769Z,85.55
2024-03-08T06:52:58.788Z,81.76
2024-03-08T06:53:58.803Z,77.92
2024-03-08T06:54:58.718Z,75.09
2024-03-08T06:55:58.739Z,72.94
2024-03-08T06:56:58.728Z,71.15
2024-03-08T06:57:58.732Z,69.81
2024-03-08T06:58:58.704Z,69.71
2024-03-08T06:59:58.741Z,70.01
2024-03-08T07:00:58.728Z,69.92
2024-03-08T07:01:58.665Z,69.71
2024-03-08T07:02:58.659Z,69.81
2024-03-08T07:03:58.657Z,69.81
2024-03-08T07:04:58.663Z,70.05
2024-03-08T07:05:58.645Z,69.67
2024-03-08T07:06:58.665Z,67.85
2024-03-08T07:07:58.591Z,66.79
2024-03-08T07:08:58.710Z,66.38
2024-03-08T07:09:58.587Z,66.17
2024-03-08T07:10:58.685Z,66.64
2024-03-08T07:11:58.583Z,68.15
2024-03-08T07:12:58.527Z,69.32
2024-03-08T07:13:58.558Z,69.01
2024-03-08T07:14:58.565Z,69.09
2024-03-08T07:15:58.537Z,68.19
2024-03-08T07:16:58.541Z,67.37
2024-03-08T07:17:58.539Z,67.27
2024-03-08T07:18:58.544Z,67.27
2024-03-08T07:19:58.467Z,67.34
2024-03-08T07:20:58.634Z,67.00
2024-03-08T07:21:58.441Z,66.89
2024-03-08T07:22:58.413Z,67.24
2024-03-08T07:23:58.534Z,67.65
2024-03-08T07:24:58.424Z,67.24
2024-03-08T07:25:58.376Z,67.37
2024-03-08T07:26:58.410Z,68.15
2024-03-08T07:27:58.368Z,68.77
2024-03-08T07:28:58.378Z,68.67
2024-03-08T07:30:58.331Z,67.61
2024-03-08T07:31:58.307Z,68.67
2024-03-08T07:32:58.376Z,68.77
2024-03-08T07:33:58.347Z,68.26
2024-03-08T07:34:58.307Z,68.64
2024-03-08T07:35:58.305Z,67.44
2024-03-08T07:36:58.350Z,65.80
2024-03-08T07:37:58.249Z,64.09
2024-03-08T07:38:58.248Z,64.32
2024-03-08T07:39:58.291Z,64.67
2024-03-08T07:40:58.222Z,64.18
2024-03-08T07:41:58.239Z,65.03
2024-03-08T07:42:58.175Z,65.61
2024-03-08T07:43:58.195Z,66.99
2024-03-08T07:44:59.591Z,67.91
2024-03-08T07:45:58.167Z,68.26
2024-03-08T07:46:58.471Z,68.70
2024-03-08T07:47:58.222Z,69.15
2024-03-08T07:48:58.169Z,69.84
2024-03-08T07:49:59.986Z,69.46
2024-03-08T07:50:58.142Z,69.46
2024-03-08T07:51:58.084Z,69.77
2024-03-08T07:52:58.079Z,69.84
2024-03-08T07:54:58.096Z,68.98
2024-03-08T07:55:58.033Z,68.15
2024-03-08T07:56:58.025Z,68.36
2024-03-08T07:57:58.017Z,68.60
2024-03-08T07:58:58.057Z,69.35
2024-03-08T07:59:58.025Z,69.12
2024-03-08T08:00:57.979Z,67.61
2024-03-08T08:01:58.045Z,65.79
2024-03-08T08:02:57.954Z,64.31
2024-03-08T08:03:57.951Z,63.51
2024-03-08T08:04:57.964Z,64.51
2024-03-08T08:05:57.973Z,65.16
2024-03-08T08:06:57.927Z,66.12
2024-03-08T08:07:57.974Z,66.60
2024-03-08T08:08:57.892Z,67.95
2024-03-08T08:09:57.907Z,67.05
2024-03-08T08:10:57.999Z,67.25
2024-03-08T08:11:57.881Z,66.84
2024-03-08T08:12:57.876Z,67.22
2024-03-08T08:13:57.912Z,65.44
2024-03-08T08:14:57.812Z,65.12
2024-03-08T08:15:57.904Z,65.36
2024-03-08T08:16:57.855Z,66.12
2024-03-08T08:17:57.855Z,67.46
2024-03-08T08:18:57.797Z,67.08
2024-03-08T08:19:57.791Z,67.70
2024-03-08T08:20:57.816Z,66.81
2024-03-08T08:21:57.764Z,65.95
2024-03-08T08:22:57.739Z,64.55
2024-03-08T08:23:57.747Z,62.35
2024-03-08T08:24:57.711Z,62.76
2024-03-08T08:25:57.787Z,62.76
2024-03-08T08:26:57.702Z,63.10
2024-03-08T08:27:57.682Z,64.58
2024-03-08T08:28:57.750Z,64.58
2024-03-08T08:29:57.665Z,65.48
2024-03-08T08:30:57.654Z,64.78
2024-03-08T08:31:57.652Z,64.78
2024-03-08T08:32:57.701Z,64.17
2024-03-08T08:33:57.628Z,64.99
2024-03-08T08:34:57.588Z,63.62
2024-03-08T08:35:57.604Z,62.66
2024-03-08T08:36:57.584Z,62.87
2024-03-08T08:37:57.620Z,62.87
2024-03-08T08:38:57.545Z,61.94
2024-03-08T08:39:57.609Z,61.27
2024-03-08T08:40:57.592Z,62.23
2024-03-08T08:41:57.560Z,63.40
2024-03-08T08:42:57.510Z,63.09
2024-03-08T08:44:03.733Z,62.16
2024-03-08T08:44:58.340Z,62.37
2024-03-08T08:45:57.513Z,62.26
2024-03-08T08:47:03.002Z,62.77
2024-03-08T08:47:58.223Z,63.29
2024-03-08T08:48:57.447Z,63.50
2024-03-08T08:49:57.452Z,62.26
2024-03-08T08:50:57.427Z,62.98
2024-03-08T08:52:01.081Z,62.37
2024-03-08T08:52:58.229Z,63.29
2024-03-08T08:53:57.370Z,63.26
2024-03-08T08:54:57.412Z,62.75
2024-03-08T08:55:57.492Z,62.85
2024-03-08T08:56:57.345Z,62.13
2024-03-08T08:57:57.682Z,61.92
2024-03-08T08:58:57.384Z,62.44
2024-03-08T08:59:57.340Z,61.30
2024-03-08T09:00:57.399Z,61.40
2024-03-08T09:01:57.404Z,60.78
2024-03-08T09:02:57.349Z,61.30
2024-03-08T09:03:57.260Z,62.44
2024-03-08T09:04:57.442Z,61.58
2024-03-08T09:05:57.319Z,61.14
2024-03-08T09:06:57.228Z,60.42
2024-03-08T09:07:57.384Z,60.21
2024-03-08T09:08:57.235Z,60.83
2024-03-08T09:09:57.241Z,60.11
2024-03-08T09:10:57.325Z,60.00
2024-03-08T09:11:57.236Z,59.77
2024-03-08T09:12:57.174Z,61.01
2024-03-08T09:13:57.151Z,59.74
2024-03-08T09:14:57.174Z,59.12
2024-03-08T09:15:57.134Z,59.02
2024-03-08T09:16:57.198Z,59.23
2024-03-08T09:17:57.152Z,59.53
2024-03-08T09:18:57.114Z,58.69
2024-03-08T09:19:57.094Z,57.96
2024-03-08T09:20:57.164Z,58.92
2024-03-08T09:21:57.104Z,59.25
2024-03-08T09:22:57.097Z,59.25
2024-03-08T09:23:57.053Z,59.98
2024-03-08T09:24:57.037Z,60.16
2024-03-08T09:25:57.120Z,58.40
2024-03-08T09:26:57.033Z,59.23
2024-03-08T09:27:56.992Z,58.40
2024-03-08T09:28:57.080Z,58.50
2024-03-08T09:29:57.022Z,58.61
2024-03-08T09:31:00.301Z,58.17
2024-03-08T09:31:56.989Z,58.20
2024-03-08T09:32:59.337Z,58.40
2024-03-08T09:33:56.946Z,58.71
2024-03-08T09:34:56.957Z,58.61
2024-03-08T09:35:56.914Z,58.20
2024-03-08T09:36:56.903Z,58.06
2024-03-08T09:37:56.898Z,58.17
2024-03-08T09:38:56.904Z,58.37
2024-03-08T09:39:56.865Z,58.99
2024-03-08T09:40:56.924Z,58.17
2024-03-08T09:41:56.866Z,57.76
2024-03-08T09:42:56.845Z,58.27
2024-03-08T09:43:57.087Z,58.58
2024-03-08T09:44:56.826Z,59.09
2024-03-08T09:45:56.800Z,58.17
2024-03-08T09:46:56.991Z,58.99
2024-03-08T09:47:56.802Z,57.62
2024-03-08T09:48:56.769Z,57.21
2024-03-08T09:49:56.762Z,57.01
2024-03-08T09:50:56.748Z,57.24
2024-03-08T09:51:56.759Z,57.86
2024-03-08T09:52:56.742Z,57.55
2024-03-08T09:53:56.730Z,57.52
2024-03-08T09:54:56.713Z,56.80
2024-03-08T09:55:56.787Z,57.21
2024-03-08T09:56:56.708Z,57.45
2024-03-08T09:57:56.656Z,57.76
2024-03-08T09:58:56.678Z,57.32
2024-03-08T09:59:56.652Z,56.90
2024-03-08T10:00:56.617Z,57.18
2024-03-08T10:01:56.670Z,56.88
2024-03-08T10:02:57.206Z,56.26
2024-03-08T10:03:56.587Z,56.88
2024-03-08T10:04:56.608Z,55.66
2024-03-08T10:05:56.552Z,55.87
2024-03-08T10:06:56.562Z,55.87
2024-03-08T10:07:56.627Z,57.03
2024-03-08T10:08:56.555Z,57.42
2024-03-08T10:09:56.530Z,57.18
2024-03-08T10:10:56.574Z,56.57
2024-03-08T10:11:56.480Z,55.82
2024-03-08T10:12:56.528Z,57.06
2024-03-08T10:13:56.520Z,54.77
2024-03-08T10:14:56.478Z,54.58
2024-03-08T10:15:56.447Z,54.69
2024-03-08T10:16:56.484Z,55.33
2024-03-08T10:17:56.471Z,55.85
2024-03-08T10:18:56.445Z,56.70
2024-03-08T10:19:56.460Z,56.57
2024-03-08T10:20:56.405Z,56.77
2024-03-08T10:21:56.378Z,55.82
2024-03-08T10:23:06.445Z,54.87
2024-03-08T10:23:56.381Z,54.46
2024-03-08T10:24:56.359Z,54.97
2024-03-08T10:25:56.438Z,54.33
2024-03-08T10:26:56.344Z,53.79
2024-03-08T10:27:56.339Z,53.48
2024-03-08T10:28:56.399Z,53.22
2024-03-08T10:29:56.301Z,54.05
2024-03-08T10:30:56.302Z,54.25
2024-03-08T10:31:56.313Z,54.53
2024-03-08T10:32:56.279Z,54.22
2024-03-08T10:33:56.263Z,53.92
2024-03-08T10:34:56.332Z,54.15
2024-03-08T10:35:56.236Z,54.53
2024-03-08T10:36:56.235Z,52.78
2024-03-08T10:37:56.271Z,52.99
2024-03-08T10:38:56.257Z,53.09
2024-03-08T10:39:56.185Z,52.84
2024-03-08T10:40:56.189Z,52.40
2024-03-08T10:41:56.197Z,51.64
2024-03-08T10:42:56.210Z,49.87
2024-03-08T10:43:56.245Z,49.99
2024-03-08T10:44:56.201Z,50.30
2024-03-08T10:45:56.163Z,50.32
2024-03-08T10:46:56.424Z,50.32
2024-03-08T10:47:56.142Z,50.38
2024-03-08T10:48:56.234Z,50.15
2024-03-08T10:49:56.252Z,49.87
2024-03-08T10:50:56.134Z,50.40
2024-03-08T10:51:56.054Z,51.99
2024-03-08T10:52:56.104Z,51.55
2024-03-08T10:53:56.130Z,52.69
2024-03-08T10:54:56.041Z,53.38
2024-03-08T10:55:56.141Z,52.78
2024-03-08T10:56:56.018Z,53.20
2024-03-08T10:57:56.003Z,53.71
2024-03-08T10:58:56.060Z,52.99
2024-03-08T10:59:58.306Z,53.71
2024-03-08T11:00:55.966Z,53.09
2024-03-08T11:01:56.044Z,52.78
2024-03-08T11:02:55.929Z,52.71
2024-03-08T11:03:55.905Z,52.81
2024-03-08T11:04:55.964Z,52.71
2024-03-08T11:05:55.900Z,52.61
2024-03-08T11:06:55.936Z,53.25
2024-03-08T11:07:56.012Z,53.84
2024-03-08T11:08:55.869Z,53.94
2024-03-08T11:09:55.841Z,52.81
2024-03-08T11:10:56.217Z,52.99
2024-03-08T11:11:55.850Z,52.58
2024-03-08T11:12:55.843Z,53.17
2024-03-08T11:13:55.898Z,51.66
2024-03-08T11:14:55.901Z,49.46
2024-03-08T11:15:55.787Z,48.64
2024-03-08T11:16:55.863Z,48.18
2024-03-08T11:17:55.812Z,47.44
2024-03-08T11:18:55.752Z,45.78
2024-03-08T11:19:55.771Z,45.25
2024-03-08T11:20:55.774Z,46.11
2024-03-08T11:21:55.720Z,46.54
2024-03-08T11:22:55.851Z,46.85
2024-03-08T11:23:55.673Z,47.64
2024-03-08T11:24:55.687Z,45.47
2024-03-08T11:25:55.734Z,45.39
2024-03-08T11:26:55.656Z,45.29
2024-03-08T11:27:55.663Z,45.39
2024-03-08T11:28:55.648Z,44.76
2024-03-08T11:29:55.617Z,44.31
2024-03-08T11:30:55.621Z,43.69
2024-03-08T11:31:55.661Z,44.53
2024-03-08T11:32:55.620Z,44.76
2024-03-08T11:33:55.583Z,45.50
2024-03-08T11:34:55.728Z,45.80
2024-03-08T11:35:55.530Z,45.18
2024-03-08T11:36:55.587Z,45.70
2024-03-08T11:37:55.571Z,45.09
2024-03-08T11:38:55.515Z,44.96
2024-03-08T11:39:55.509Z,44.45
2024-03-08T11:40:55.538Z,43.84
2024-03-08T11:41:55.490Z,43.63
2024-03-08T11:42:55.456Z,43.82
2024-03-08T11:43:55.483Z,43.69
2024-03-08T11:44:55.497Z,44.08
2024-03-08T11:45:55.442Z,42.87
2024-03-08T11:46:55.592Z,43.08
2024-03-08T11:47:58.385Z,43.51
2024-03-08T11:48:55.410Z,43.73
2024-03-08T11:49:55.441Z,44.49
2024-03-08T11:50:55.393Z,45.80
2024-03-08T11:51:55.350Z,43.65
2024-03-08T11:52:55.419Z,43.75
2024-03-08T11:53:55.354Z,44.88
2024-03-08T11:54:55.397Z,44.47
2024-03-08T11:55:55.341Z,44.47
2024-03-08T11:56:55.300Z,44.68
2024-03-08T11:57:55.277Z,44.08
2024-03-08T11:58:55.319Z,44.17
2024-03-08T11:59:57.456Z,44.65
2024-03-08T12:00:55.268Z,43.12
2024-03-08T12:01:55.354Z,43.32
2024-03-08T12:02:55.275Z,43.12
2024-03-08T12:03:55.217Z,43.77
2024-03-08T12:04:55.294Z,44.62
2024-03-08T12:05:57.207Z,45.64
2024-03-08T12:06:55.188Z,45.10
2024-03-08T12:07:55.300Z,43.65
2024-03-08T12:08:55.172Z,43.88
2024-03-08T12:09:55.163Z,44.29
2024-03-08T12:10:55.209Z,45.62
2024-03-08T12:11:55.198Z,44.57
2024-03-08T12:12:55.155Z,43.88
2024-03-08T12:13:55.323Z,43.77
2024-03-08T12:14:55.104Z,43.79
2024-03-08T12:15:55.086Z,44.92
2024-03-08T12:16:55.224Z,44.92
2024-03-08T12:17:55.068Z,44.82
2024-03-08T12:18:55.154Z,44.51
2024-03-08T12:19:55.128Z,45.13
2024-03-08T12:20:55.033Z,45.62
2024-03-08T12:21:55.008Z,45.51
2024-03-08T12:22:55.123Z,45.64
2024-03-08T12:23:56.844Z,46.77
2024-03-08T12:24:54.991Z,46.13
2024-03-08T12:25:54.975Z,45.23
2024-03-08T12:26:54.978Z,45.84
2024-03-08T12:27:54.958Z,45.00
2024-03-08T12:28:55.028Z,45.33
2024-03-08T12:29:54.940Z,46.07
2024-03-08T12:30:54.913Z,46.61
2024-03-08T12:31:55.446Z,47.12
2024-03-08T12:32:55.771Z,47.51
2024-03-08T12:33:57.497Z,46.79
2024-03-08T12:34:55.238Z,46.38
2024-03-08T12:35:55.622Z,46.79
2024-03-08T12:36:54.862Z,47.61
2024-03-08T12:37:54.963Z,47.09
2024-03-08T12:38:54.838Z,48.22
2024-03-08T12:39:54.813Z,46.87
2024-03-08T12:40:54.883Z,47.00
2024-03-08T12:41:54.787Z,47.09
2024-03-08T12:42:54.809Z,47.00
2024-03-08T12:43:54.792Z,47.09
2024-03-08T12:44:54.767Z,47.71
2024-03-08T12:45:54.757Z,47.00
2024-03-08T12:46:54.874Z,47.30
2024-03-08T12:47:54.770Z,47.51
2024-03-08T12:48:54.745Z,47.20
2024-03-08T12:49:54.815Z,47.49
2024-03-08T12:50:54.730Z,47.20
2024-03-08T12:51:54.765Z,47.51
2024-03-08T12:52:54.743Z,47.89
2024-03-08T12:53:54.663Z,46.38